Time;durP1;ratioP1;P1;durP2;ratioP2;P2;SDS_P1;SDS_P2;PMS_P1;PMS_P2;Temp;Humidity;BMP_temperature;BMP_pressure;BME280_temperature;BME280_humidity;BME280_pressure;Samples;Min_cycle;Max_cycle;Signal;HPM_P1;HPM_P2
2022/04/10 00:01:13;;;;;;;14.57;2.72;;;2.50;99.90;;;;;;5082749;22;20055;-81
2022/04/10 00:03:41;;;;;;;13.07;3.28;;;2.50;99.90;;;;;;5097783;22;20048;-81
2022/04/10 00:06:07;;;;;;;9.80;2.80;;;3.40;99.90;;;;;;5073815;22;20083;-81
2022/04/10 00:08:33;;;;;;;13.07;2.80;;;2.40;99.90;;;;;;5082945;22;20055;-81
2022/04/10 00:10:59;;;;;;;15.13;3.05;;;2.40;99.90;;;;;;5080091;22;20048;-81
2022/04/10 00:13:25;;;;;;;14.20;2.90;;;2.30;99.90;;;;;;5086891;22;20459;-81
2022/04/10 00:15:51;;;;;;;11.50;2.72;;;2.30;99.90;;;;;;5068620;22;20052;-81
2022/04/10 00:18:17;;;;;;;16.65;3.15;;;2.20;99.90;;;;;;5080090;22;20055;-81
2022/04/10 00:20:46;;;;;;;12.10;2.90;;;2.20;99.90;;;;;;5089904;22;20056;-81
2022/04/10 00:23:12;;;;;;;12.82;3.70;;;2.10;99.90;;;;;;5087745;22;20082;-81
2022/04/10 00:25:41;;;;;;;22.60;4.05;;;2.30;99.90;;;;;;5096127;22;20048;-82
2022/04/10 00:28:08;;;;;;;17.60;4.20;;;2.20;99.90;;;;;;5079045;22;20054;-81
2022/04/10 00:30:40;;;;;;;27.67;4.68;;;2.20;99.90;;;;;;5082887;22;20048;-81
2022/04/10 00:33:06;;;;;;;21.50;4.38;;;3.50;99.90;;;;;;5080616;22;20459;-81
2022/04/10 00:35:32;;;;;;;12.07;3.03;;;2.20;99.90;;;;;;5079209;22;20041;-81
2022/04/10 00:37:58;;;;;;;12.18;3.17;;;2.20;99.90;;;;;;5055100;22;20051;-81
2022/04/10 00:40:24;;;;;;;11.07;3.25;;;2.30;99.90;;;;;;5084313;22;20044;-81
2022/04/10 00:42:51;;;;;;;11.88;2.55;;;2.90;99.90;;;;;;5090742;22;20079;-82
2022/04/10 00:45:18;;;;;;;10.68;2.72;;;2.20;99.90;;;;;;5089142;22;20047;-81
2022/04/10 00:47:45;;;;;;;14.55;3.42;;;2.10;99.90;;;;;;5095009;22;20105;-82
2022/04/10 00:50:13;;;;;;;15.93;3.47;;;2.10;99.90;;;;;;5084078;22;20048;-81
2022/04/10 00:52:42;;;;;;;12.38;3.28;;;2.00;99.90;;;;;;5081048;22;20057;-81
2022/04/10 00:55:08;;;;;;;10.13;3.67;;;2.00;99.90;;;;;;5034106;22;20053;-81
2022/04/10 00:57:40;;;;;;;16.80;3.80;;;2.00;99.90;;;;;;5068121;22;20053;-82
2022/04/10 01:00:12;;;;;;;12.70;3.35;;;2.00;99.90;;;;;;5082965;22;20060;-81
2022/04/10 01:02:45;;;;;;;12.45;3.05;;;2.00;99.90;;;;;;5074416;22;20056;-81
2022/04/10 01:05:10;;;;;;;13.32;3.25;;;1.80;99.90;;;;;;5091130;22;20455;-81
2022/04/10 01:07:43;;;;;;;14.52;3.03;;;2.00;99.90;;;;;;5089674;22;20048;-81
2022/04/10 01:10:09;;;;;;;13.45;3.42;;;1.90;99.90;;;;;;5097234;22;20056;-81
2022/04/10 01:12:42;;;;;;;12.00;2.50;;;1.90;99.90;;;;;;5084265;22;20056;-81
2022/04/10 01:15:09;;;;;;;9.38;2.45;;;3.30;99.90;;;;;;5068006;22;20044;-81
2022/04/10 01:17:44;;;;;;;14.88;2.53;;;1.90;99.90;;;;;;5018978;22;1205405;-81
2022/04/10 01:20:10;;;;;;;10.38;2.65;;;1.60;99.90;;;;;;5097522;22;20052;-81
2022/04/10 01:22:44;;;;;;;11.07;2.75;;;1.90;99.90;;;;;;5095819;22;20052;-81
2022/04/10 01:25:10;;;;;;;10.77;2.22;;;1.80;99.90;;;;;;5099976;22;20128;-81
2022/04/10 01:27:42;;;;;;;14.40;2.63;;;1.90;99.90;;;;;;5099733;22;20057;-81
2022/04/10 01:30:11;;;;;;;11.00;2.50;;;1.90;99.90;;;;;;5080088;22;20047;-81
2022/04/10 01:32:37;;;;;;;9.75;2.60;;;1.80;99.90;;;;;;5090780;22;20040;-81
2022/04/10 01:35:04;;;;;;;11.18;2.40;;;1.70;99.90;;;;;;5092808;22;20038;-81
2022/04/10 01:37:34;;;;;;;10.52;2.75;;;1.80;99.90;;;;;;5092139;22;20059;-81
2022/04/10 01:39:59;;;;;;;12.60;2.40;;;1.40;99.90;;;;;;5084101;22;20056;-81
2022/04/10 01:42:25;;;;;;;10.93;2.70;;;1.70;99.90;;;;;;5088237;22;20057;-81
2022/04/10 01:44:51;;;;;;;7.85;2.15;;;1.70;99.90;;;;;;5101019;22;20047;-82
2022/04/10 01:47:17;;;;;;;14.70;2.67;;;1.80;99.90;;;;;;5094802;22;20377;-81
2022/04/10 01:49:43;;;;;;;11.73;2.72;;;2.50;99.90;;;;;;5109476;22;20102;-82
2022/04/10 01:52:09;;;;;;;10.90;2.45;;;1.50;99.90;;;;;;5075889;22;20056;-81
2022/04/10 01:54:40;;;;;;;11.20;2.58;;;2.90;99.90;;;;;;5081738;22;20056;-82
2022/04/10 01:57:08;;;;;;;12.10;2.97;;;1.50;99.90;;;;;;5070964;22;20128;-81
2022/04/10 01:59:33;;;;;;;14.88;2.50;;;1.40;99.90;;;;;;5059762;22;20056;-81
2022/04/10 02:01:59;;;;;;;12.15;2.70;;;1.60;99.90;;;;;;5083854;22;20552;-81
2022/04/10 02:04:25;;;;;;;11.98;2.60;;;1.60;99.90;;;;;;5077906;22;20135;-81
2022/04/10 02:06:51;;;;;;;10.05;2.20;;;2.40;99.90;;;;;;5101215;22;20051;-82
2022/04/10 02:09:18;;;;;;;8.30;2.22;;;1.60;99.90;;;;;;5093097;22;20478;-81
2022/04/10 02:11:43;;;;;;;11.63;2.45;;;2.50;99.90;;;;;;5103204;22;20049;-82
2022/04/10 02:14:09;;;;;;;14.70;2.90;;;1.30;99.90;;;;;;5082591;22;20056;-81
2022/04/10 02:16:35;;;;;;;12.52;2.70;;;1.50;99.90;;;;;;5099632;22;20051;-82
2022/04/10 02:19:00;;;;;;;12.85;2.60;;;1.30;99.90;;;;;;5097351;22;20078;-81
2022/04/10 02:21:26;;;;;;;10.88;2.40;;;1.30;99.90;;;;;;5094841;22;20083;-81
2022/04/10 02:23:52;;;;;;;10.95;2.38;;;1.50;99.90;;;;;;5080712;22;20135;-81
2022/04/10 02:26:18;;;;;;;9.75;2.40;;;1.60;99.90;;;;;;5085740;22;20052;-81
2022/04/10 02:28:43;;;;;;;11.27;2.63;;;2.10;99.90;;;;;;5095241;22;20174;-82
2022/04/10 02:31:10;;;;;;;8.93;2.22;;;1.60;99.90;;;;;;5091686;22;20047;-81
2022/04/10 02:33:41;;;;;;;10.68;2.10;;;1.50;99.90;;;;;;5094094;22;20147;-81
2022/04/10 02:36:07;;;;;;;10.10;1.92;;;1.50;99.90;;;;;;5090841;22;20345;-81
2022/04/10 02:38:33;;;;;;;8.30;2.33;;;1.40;99.90;;;;;;5081899;22;20047;-81
2022/04/10 02:40:59;;;;;;;7.13;2.00;;;1.40;99.90;;;;;;5104107;22;20056;-81
2022/04/10 02:43:24;;;;;;;9.85;2.60;;;1.70;99.90;;;;;;5082854;22;20559;-81
2022/04/10 02:45:50;;;;;;;13.38;2.72;;;1.50;99.90;;;;;;5101237;22;20048;-81
2022/04/10 02:48:16;;;;;;;10.85;2.20;;;1.60;99.90;;;;;;5096463;22;20380;-81
2022/04/10 02:50:48;;;;;;;10.95;1.88;;;1.70;99.90;;;;;;5101582;22;20053;-81
2022/04/10 02:53:14;;;;;;;7.80;2.28;;;1.80;99.90;;;;;;5073647;22;20073;-81
2022/04/10 02:55:41;;;;;;;9.43;2.20;;;1.80;99.90;;;;;;5098994;22;20059;-81
2022/04/10 02:58:07;;;;;;;9.75;2.25;;;2.00;99.90;;;;;;5104994;22;20044;-81
2022/04/10 03:00:33;;;;;;;11.57;2.03;;;1.90;99.90;;;;;;5106006;22;20063;-81
2022/04/10 03:02:59;;;;;;;13.52;1.75;;;2.10;99.90;;;;;;5091922;22;20559;-81
2022/04/10 03:05:25;;;;;;;9.70;2.10;;;2.10;99.90;;;;;;5100384;22;20066;-81
2022/04/10 03:07:50;;;;;;;9.55;2.05;;;2.20;99.90;;;;;;5105021;22;20146;-82
2022/04/10 03:10:16;;;;;;;9.02;1.90;;;3.50;99.90;;;;;;5099498;22;20170;-82
2022/04/10 03:12:42;;;;;;;10.25;2.40;;;2.30;99.90;;;;;;5104884;22;20057;-82
2022/04/10 03:15:08;;;;;;;10.85;1.98;;;2.30;99.90;;;;;;5082774;22;20135;-82
2022/04/10 03:17:40;;;;;;;9.18;1.75;;;2.40;99.90;;;;;;5103273;22;20057;-83
2022/04/10 03:20:07;;;;;;;7.90;1.80;;;2.20;99.90;;;;;;5087001;22;20045;-82
2022/04/10 03:22:33;;;;;;;7.85;1.73;;;2.40;99.90;;;;;;5085989;22;20052;-83
2022/04/10 03:24:58;;;;;;;12.02;1.70;;;2.50;99.90;;;;;;5074415;22;20022;-82
2022/04/10 03:27:24;;;;;;;11.43;2.10;;;2.50;99.90;;;;;;5092106;22;20071;-82
2022/04/10 03:29:50;;;;;;;7.85;1.63;;;4.10;99.90;;;;;;5095315;22;20063;-82
2022/04/10 03:32:16;;;;;;;10.95;1.90;;;2.60;99.90;;;;;;5085782;22;20055;-82
2022/04/10 03:34:42;;;;;;;9.57;2.05;;;2.60;99.90;;;;;;5092314;22;20045;-83
2022/04/10 03:37:08;;;;;;;6.93;1.40;;;2.60;99.90;;;;;;5053708;22;20036;-82
2022/04/10 03:39:40;;;;;;;13.00;2.00;;;2.60;99.90;;;;;;5083316;22;20052;-83
2022/04/10 03:42:07;;;;;;;6.45;2.20;;;2.40;99.90;;;;;;5074950;22;20122;-82
2022/04/10 03:44:33;;;;;;;9.93;1.80;;;2.60;99.90;;;;;;5071091;22;20412;-83
2022/04/10 03:46:59;;;;;;;9.38;1.60;;;2.90;99.90;;;;;;5056835;22;20109;-82
2022/04/10 03:49:25;;;;;;;5.47;1.50;;;2.60;99.90;;;;;;5088472;22;20040;-82
2022/04/10 03:51:51;;;;;;;8.80;1.88;;;2.60;99.90;;;;;;5087685;22;20056;-82
2022/04/10 03:54:16;;;;;;;7.50;1.40;;;3.10;99.90;;;;;;5084410;22;20067;-82
2022/04/10 03:56:42;;;;;;;6.82;1.50;;;2.70;99.90;;;;;;5077196;22;20053;-82
2022/04/10 03:59:08;;;;;;;7.13;1.67;;;2.70;99.90;;;;;;5076641;22;20341;-82
2022/04/10 04:01:34;;;;;;;8.05;1.77;;;2.60;99.90;;;;;;5075186;22;20148;-83
2022/04/10 04:04:00;;;;;;;9.35;2.35;;;2.70;99.90;;;;;;5077545;22;20071;-83
2022/04/10 04:06:26;;;;;;;7.35;1.58;;;2.70;99.90;;;;;;5082102;22;20067;-82
2022/04/10 04:08:51;;;;;;;5.63;1.85;;;2.80;99.90;;;;;;5106969;22;20044;-82
2022/04/10 04:11:17;;;;;;;5.78;1.90;;;2.70;99.90;;;;;;5094708;22;20064;-82
2022/04/10 04:16:13;;;;;;;10.35;1.83;;;2.60;99.90;;;;;;5090743;22;20052;-82
2022/04/10 04:18:38;;;;;;;6.60;1.42;;;2.40;99.90;;;;;;5076134;22;20044;-83
2022/04/10 04:21:04;;;;;;;6.75;1.60;;;2.50;99.90;;;;;;5068723;22;20055;-83
2022/04/10 04:23:30;;;;;;;5.78;1.75;;;2.50;99.90;;;;;;5082680;22;20055;-82
2022/04/10 04:25:56;;;;;;;6.50;1.52;;;2.60;99.90;;;;;;5079787;22;20048;-83
2022/04/10 04:28:22;;;;;;;3.90;1.33;;;2.60;99.90;;;;;;5085382;22;20048;-82
2022/04/10 04:30:48;;;;;;;9.82;1.60;;;2.70;99.90;;;;;;5097802;22;20054;-82
2022/04/10 04:33:16;;;;;;;5.82;1.35;;;3.10;99.90;;;;;;5087992;22;20049;-82
2022/04/10 04:35:43;;;;;;;5.50;1.38;;;3.90;99.90;;;;;;5100982;22;20127;-83
2022/04/10 04:38:09;;;;;;;6.75;1.33;;;2.60;99.90;;;;;;5070990;22;20411;-82
2022/04/10 04:40:35;;;;;;;4.85;1.65;;;2.70;99.90;;;;;;5099394;28;20052;-83
2022/04/10 04:43:00;;;;;;;4.65;1.35;;;2.60;99.90;;;;;;5131307;22;20051;-83
2022/04/10 04:45:26;;;;;;;5.55;1.33;;;2.50;99.90;;;;;;5093421;22;20044;-82
2022/04/10 04:47:52;;;;;;;2.70;1.20;;;2.50;99.90;;;;;;5070046;22;20045;-83
2022/04/10 04:50:18;;;;;;;7.10;1.25;;;2.40;99.90;;;;;;5087632;22;20059;-82
2022/04/10 04:52:44;;;;;;;5.38;1.55;;;2.40;99.90;;;;;;5092201;22;20047;-82
2022/04/10 04:55:10;;;;;;;7.65;1.70;;;2.40;99.90;;;;;;5108947;22;20506;-82
2022/04/10 04:57:35;;;;;;;5.05;1.20;;;2.90;99.90;;;;;;5069168;28;20041;-82
2022/04/10 05:00:02;;;;;;;6.05;1.58;;;2.40;99.90;;;;;;5086006;22;20625;-83
2022/04/10 05:02:28;;;;;;;4.82;1.17;;;2.80;99.90;;;;;;5076967;22;20051;-82
2022/04/10 05:04:54;;;;;;;5.78;1.20;;;2.50;99.90;;;;;;5078220;22;20347;-84
2022/04/10 05:07:21;;;;;;;6.05;1.40;;;2.50;99.90;;;;;;5082541;22;20049;-82
2022/04/10 05:09:47;;;;;;;4.30;1.02;;;2.60;99.90;;;;;;5069042;28;20174;-82
2022/04/10 05:12:13;;;;;;;4.20;1.38;;;2.70;99.90;;;;;;5085711;28;20496;-82
2022/04/10 05:14:38;;;;;;;3.83;1.30;;;2.80;99.90;;;;;;5069705;28;20041;-82
2022/04/10 05:17:04;;;;;;;5.10;1.45;;;3.50;99.90;;;;;;5072791;28;20074;-82
2022/04/10 05:19:30;;;;;;;5.50;1.35;;;2.80;99.90;;;;;;5094725;22;20044;-82
2022/04/10 05:21:55;;;;;;;7.07;1.60;;;2.80;99.90;;;;;;5079282;22;20079;-82
2022/04/10 05:24:21;;;;;;;4.78;1.75;;;2.80;99.90;;;;;;5069345;28;20048;-83
2022/04/10 05:26:47;;;;;;;4.72;1.33;;;2.70;99.90;;;;;;5092543;22;20051;-83
2022/04/10 05:29:12;;;;;;;5.45;1.40;;;3.80;99.90;;;;;;5072091;28;20116;-82
2022/04/10 05:31:38;;;;;;;5.85;1.23;;;4.10;99.90;;;;;;5077157;22;20052;-83
2022/04/10 05:34:03;;;;;;;3.65;1.20;;;2.50;99.90;;;;;;5069401;28;20040;-82
2022/04/10 05:36:29;;;;;;;5.25;1.63;;;2.80;99.90;;;;;;5069015;28;20052;-82
2022/04/10 05:38:55;;;;;;;4.45;1.38;;;2.50;99.90;;;;;;5093398;22;20056;-83
2022/04/10 05:41:20;;;;;;;4.18;1.23;;;2.70;99.90;;;;;;5072150;28;20457;-82
2022/04/10 05:43:46;;;;;;;5.45;1.40;;;2.60;99.90;;;;;;5072783;28;20065;-82
2022/04/10 05:46:12;;;;;;;7.60;1.50;;;2.50;99.90;;;;;;5091952;22;20060;-83
2022/04/10 05:48:38;;;;;;;6.93;1.75;;;4.20;99.90;;;;;;5068663;28;20399;-82
2022/04/10 05:51:03;;;;;;;6.85;1.90;;;2.60;99.90;;;;;;5068470;28;20108;-83
2022/04/10 05:53:29;;;;;;;7.60;1.33;;;4.00;99.90;;;;;;5090406;22;20440;-82
2022/04/10 05:55:55;;;;;;;8.82;1.67;;;2.90;99.90;;;;;;5071306;28;20051;-83
2022/04/10 05:58:21;;;;;;;7.75;1.65;;;3.50;99.90;;;;;;5090357;28;20083;-82
2022/04/10 06:00:46;;;;;;;8.60;1.50;;;3.60;99.90;;;;;;5087778;28;20036;-83
2022/04/10 06:03:12;;;;;;;6.00;1.70;;;3.20;99.90;;;;;;5070321;28;20123;-82
2022/04/10 06:05:38;;;;;;;4.68;1.45;;;3.20;99.90;;;;;;5087109;28;20059;-82
2022/04/10 06:08:04;;;;;;;6.93;1.40;;;4.40;99.90;;;;;;5087204;28;20048;-83
2022/04/10 06:10:29;;;;;;;6.13;1.52;;;3.50;99.90;;;;;;5087129;28;20040;-83
2022/04/10 06:13:05;;;;;;;10.13;1.50;;;3.60;99.90;;;;;;5086476;28;20126;-82
2022/04/10 06:15:31;;;;;;;;;;;3.60;99.90;;;;;;5105473;28;20048;-82
2022/04/10 06:17:56;;;;;;;7.85;1.67;;;3.60;99.90;;;;;;5069607;28;19983;-83
2022/04/10 06:20:22;;;;;;;5.45;1.67;;;3.70;99.90;;;;;;5086322;28;20051;-82
2022/04/10 06:22:47;;;;;;;9.30;1.80;;;4.30;99.90;;;;;;5069747;28;20105;-82
2022/04/10 06:25:13;;;;;;;8.82;1.48;;;3.30;99.90;;;;;;5085790;28;20052;-83
2022/04/10 06:27:39;;;;;;;6.07;1.48;;;3.90;99.90;;;;;;5086903;28;20039;-83
2022/04/10 06:30:05;;;;;;;6.97;1.40;;;5.30;99.90;;;;;;5105307;28;20450;-82
2022/04/10 06:32:30;;;;;;;7.05;1.73;;;4.30;99.90;;;;;;5104702;28;20036;-82
2022/04/10 06:34:56;;;;;;;14.00;1.90;;;4.10;99.90;;;;;;5086100;28;20112;-82
2022/04/10 06:37:22;;;;;;;7.78;1.50;;;4.20;99.90;;;;;;5086166;28;20040;-83
2022/04/10 06:39:50;;;;;;;6.00;1.30;;;4.50;99.90;;;;;;5087844;28;20044;-82
2022/04/10 06:42:16;;;;;;;7.38;1.50;;;4.40;99.90;;;;;;5086479;28;20040;-83
2022/04/10 06:44:41;;;;;;;10.18;1.55;;;5.10;99.90;;;;;;5086656;28;20055;-83
2022/04/10 06:47:07;;;;;;;9.63;1.35;;;4.60;99.90;;;;;;5105020;28;20036;-83
2022/04/10 06:49:33;;;;;;;7.45;1.83;;;4.50;99.90;;;;;;5086418;28;20079;-83
2022/04/10 06:51:59;;;;;;;7.40;1.80;;;5.20;99.90;;;;;;5085368;28;20487;-82
2022/04/10 06:54:24;;;;;;;6.05;1.67;;;5.10;99.90;;;;;;5085591;28;20044;-83
2022/04/10 06:56:50;;;;;;;6.18;1.58;;;4.70;99.90;;;;;;5068017;28;20044;-83
2022/04/10 06:59:15;;;;;;;9.63;2.17;;;4.80;99.90;;;;;;5085707;28;20048;-83
2022/04/10 07:01:41;;;;;;;5.97;1.67;;;4.80;99.90;;;;;;5085973;28;20040;-82
2022/04/10 07:04:07;;;;;;;11.18;2.00;;;4.70;99.90;;;;;;5087848;28;20100;-83
2022/04/10 07:06:32;;;;;;;8.38;1.67;;;4.70;99.90;;;;;;5090964;28;20048;-82
2022/04/10 07:08:58;;;;;;;5.93;1.55;;;4.90;99.90;;;;;;5085872;28;20075;-83
2022/04/10 07:11:24;;;;;;;6.07;1.63;;;5.30;99.90;;;;;;5085270;28;20044;-83
2022/04/10 07:13:50;;;;;;;7.78;1.58;;;5.00;99.90;;;;;;5104560;28;20036;-83
2022/04/10 07:16:16;;;;;;;6.57;1.80;;;5.20;99.90;;;;;;5088658;28;20387;-83
2022/04/10 07:18:42;;;;;;;6.50;1.63;;;5.40;99.90;;;;;;5071279;28;20083;-83
2022/04/10 07:21:08;;;;;;;7.40;1.60;;;5.10;99.90;;;;;;5070963;28;20079;-82
2022/04/10 07:23:42;;;;;;;7.82;1.60;;;6.80;99.90;;;;;;5085079;28;20051;-83
2022/04/10 07:26:13;;;;;;;6.20;1.93;;;5.00;99.90;;;;;;5102893;28;20136;-83
2022/04/10 07:28:39;;;;;;;11.32;1.73;;;7.00;99.90;;;;;;5068708;28;20047;-83
2022/04/10 07:31:06;;;;;;;9.85;1.40;;;7.00;99.90;;;;;;5084798;28;20067;-82
2022/04/10 07:33:32;;;;;;;4.72;1.45;;;6.90;99.90;;;;;;5083153;28;20028;-83
2022/04/10 07:35:57;;;;;;;6.80;1.42;;;5.40;99.90;;;;;;5101508;28;20044;-83
2022/04/10 07:38:23;;;;;;;8.65;1.85;;;7.50;99.90;;;;;;5084563;28;20095;-83
2022/04/10 07:40:52;;;;;;;9.38;1.70;;;6.60;99.90;;;;;;5060773;28;20041;-83
2022/04/10 07:43:17;;;;;;;8.45;1.95;;;6.80;99.90;;;;;;5058577;28;20052;-83
2022/04/10 07:48:28;;;;;;;7.13;1.40;;;7.20;99.90;;;;;;5083084;28;20074;-83
2022/04/10 07:50:55;;;;;;;8.05;1.27;;;7.10;99.90;;;;;;5065460;28;20053;-83
2022/04/10 07:53:21;;;;;;;6.68;1.50;;;7.40;99.90;;;;;;5064629;28;20391;-83
2022/04/10 07:55:47;;;;;;;7.70;1.35;;;7.00;99.90;;;;;;5082503;28;20052;-83
2022/04/10 07:58:12;;;;;;;6.20;1.70;;;6.60;99.90;;;;;;5047292;28;20044;-82
2022/04/10 08:00:39;;;;;;;7.13;1.50;;;7.90;99.90;;;;;;5064590;28;20113;-82
2022/04/10 08:03:04;;;;;;;8.35;1.80;;;5.90;99.90;;;;;;5083023;28;20113;-82
2022/04/10 08:05:30;;;;;;;7.68;1.50;;;6.40;99.90;;;;;;5047497;28;20041;-82
2022/04/10 08:07:56;;;;;;;8.07;1.40;;;5.90;99.90;;;;;;5065231;28;20460;-82
2022/04/10 08:10:22;;;;;;;7.97;1.60;;;6.70;99.90;;;;;;5047665;28;20040;-82
2022/04/10 08:12:47;;;;;;;8.30;1.45;;;6.90;99.90;;;;;;5065365;28;20150;-83
2022/04/10 08:15:13;;;;;;;6.80;1.25;;;6.90;99.90;;;;;;5048427;28;20044;-83
2022/04/10 08:17:40;;;;;;;6.18;1.20;;;7.00;99.90;;;;;;5063891;28;20040;-82
2022/04/10 08:20:07;;;;;;;7.80;1.40;;;6.60;99.90;;;;;;5030197;28;20044;-82
2022/04/10 08:22:34;;;;;;;7.50;1.50;;;6.50;99.90;;;;;;5047942;28;20067;-83
2022/04/10 08:25:09;;;;;;;5.38;1.60;;;6.70;99.90;;;;;;5047474;28;20127;-82
2022/04/10 08:27:36;;;;;;;;;;;6.90;99.90;;;;;;5068211;28;20475;-83
2022/04/10 08:30:04;;;;;;;8.40;1.40;;;7.20;99.90;;;;;;5049335;28;19959;-83
2022/04/10 08:32:42;;;;;;;6.63;1.45;;;7.40;99.90;;;;;;5065109;28;20048;-82
2022/04/10 08:35:08;;;;;;;10.80;1.40;;;8.60;99.90;;;;;;5081934;28;20044;-83
2022/04/10 08:37:34;;;;;;;8.20;1.58;;;7.10;99.90;;;;;;5063164;28;20044;-83
2022/04/10 08:40:00;;;;;;;8.65;1.85;;;7.10;99.90;;;;;;5047163;28;20442;-82
2022/04/10 08:42:26;;;;;;;9.88;1.80;;;7.40;99.90;;;;;;5046383;28;20112;-82
2022/04/10 08:44:55;;;;;;;7.25;1.20;;;7.30;99.90;;;;;;5046195;28;20059;-83
2022/04/10 08:47:21;;;;;;;6.68;1.35;;;8.80;99.90;;;;;;5064061;28;20079;-83
2022/04/10 08:49:48;;;;;;;8.50;1.52;;;8.40;99.90;;;;;;5063052;28;20136;-82
2022/04/10 08:52:16;;;;;;;6.63;1.70;;;8.70;99.90;;;;;;5046365;28;20064;-83
2022/04/10 08:54:42;;;;;;;7.47;1.75;;;7.80;99.90;;;;;;5068052;22;20121;-83
2022/04/10 08:57:08;;;;;;;7.78;1.50;;;8.10;99.90;;;;;;5095556;22;20386;-83
2022/04/10 08:59:34;;;;;;;6.22;1.50;;;8.40;99.90;;;;;;5092296;28;20051;-82
2022/04/10 09:02:00;;;;;;;7.95;1.10;;;7.70;99.90;;;;;;5094964;22;20040;-82
2022/04/10 09:04:26;;;;;;;8.40;1.42;;;8.60;99.90;;;;;;5079036;22;20047;-82
2022/04/10 09:07:07;;;;;;;7.28;1.38;;;7.80;99.90;;;;;;5106872;22;20082;-83
2022/04/10 09:09:35;;;;;;;6.15;1.30;;;8.10;99.90;;;;;;5083291;28;20052;-82
2022/04/10 09:12:01;;;;;;;6.15;1.17;;;8.50;99.90;;;;;;5083591;22;20059;-83
2022/04/10 09:14:41;;;;;;;4.88;1.20;;;8.60;99.90;;;;;;5113778;22;20048;-83
2022/04/10 09:17:18;;;;;;;7.43;1.40;;;9.70;99.90;;;;;;5093681;28;20036;-83
2022/04/10 09:19:52;;;;;;;8.32;1.60;;;8.30;99.90;;;;;;5088030;28;20136;-83
2022/04/10 09:22:25;;;;;;;6.22;1.70;;;8.80;99.90;;;;;;5084899;28;20048;-82
2022/04/10 09:25:00;;;;;;;7.10;1.48;;;8.20;99.90;;;;;;5086479;22;20400;-82
2022/04/10 09:27:33;;;;;;;5.60;1.40;;;8.30;99.90;;;;;;5076204;22;20110;-82
2022/04/10 09:29:59;;;;;;;5.75;1.55;;;8.40;99.90;;;;;;5083712;28;20063;-83
2022/04/10 09:32:53;;;;;;;5.82;1.30;;;8.70;99.90;;;;;;5077326;22;20045;-82
2022/04/10 09:35:22;;;;;;;8.40;1.40;;;9.00;99.90;;;;;;5066991;22;20471;-82
2022/04/10 09:37:53;;;;;;;4.47;1.30;;;9.10;99.90;;;;;;5071952;22;20045;-82
2022/04/10 09:40:35;;;;;;;8.38;1.70;;;9.50;99.90;;;;;;5078014;22;20059;-83
2022/04/10 09:43:10;;;;;;;4.43;0.93;;;8.70;99.90;;;;;;5073486;22;20199;-82
2022/04/10 09:45:43;;;;;;;3.80;1.33;;;8.50;99.90;;;;;;5077038;22;20048;-82
2022/04/10 09:48:19;;;;;;;6.47;1.50;;;9.40;99.90;;;;;;5074025;22;20094;-82
2022/04/10 09:51:03;;;;;;;4.63;1.25;;;8.80;99.90;;;;;;5093849;22;20054;-83
2022/04/10 09:53:30;;;;;;;6.72;1.30;;;9.70;99.90;;;;;;5077905;22;20052;-82
2022/04/10 09:56:02;;;;;;;6.80;1.77;;;9.20;99.90;;;;;;5089856;22;20075;-82
2022/04/10 09:58:28;;;;;;;5.63;1.13;;;9.30;99.90;;;;;;5085284;22;20045;-82
2022/04/10 10:00:55;;;;;;;7.38;1.10;;;10.20;99.90;;;;;;5079971;22;20044;-83
2022/04/10 10:03:28;;;;;;;5.68;1.20;;;9.50;99.90;;;;;;5088484;22;20049;-82
2022/04/10 10:05:55;;;;;;;6.93;1.30;;;9.60;99.90;;;;;;5091653;22;20098;-82
2022/04/10 10:08:23;;;;;;;9.13;1.48;;;9.80;99.90;;;;;;5081995;22;20050;-82
2022/04/10 10:10:49;;;;;;;7.07;1.63;;;9.80;99.90;;;;;;5111972;22;20112;-83
2022/04/10 10:13:15;;;;;;;9.18;1.42;;;9.60;99.90;;;;;;5089951;28;20051;-83
2022/04/10 10:15:43;;;;;;;6.50;1.50;;;9.20;99.90;;;;;;5093811;22;20044;-82
2022/04/10 10:18:12;;;;;;;6.38;1.27;;;9.20;99.90;;;;;;5087335;22;20044;-82
2022/04/10 10:20:42;;;;;;;5.57;1.17;;;9.70;99.90;;;;;;5082141;22;20056;-82
2022/04/10 10:23:10;;;;;;;6.15;1.20;;;9.30;99.90;;;;;;5092450;22;20436;-82
2022/04/10 10:26:06;;;;;;;6.78;1.35;;;10.10;99.90;;;;;;5091980;22;20507;-82
2022/04/10 10:28:57;;;;;;;4.05;1.05;;;9.90;99.90;;;;;;5093749;22;20509;-83
2022/04/10 10:31:54;;;;;;;4.88;1.40;;;9.80;99.90;;;;;;5077045;22;20059;-82
2022/04/10 10:34:22;;;;;;;4.85;1.20;;;9.80;99.90;;;;;;5089276;22;20515;-82
2022/04/10 10:36:48;;;;;;;5.38;1.10;;;10.50;99.90;;;;;;5087868;22;20128;-83
2022/04/10 10:39:14;;;;;;;9.00;1.30;;;9.60;99.90;;;;;;5090291;22;20055;-82
2022/04/10 10:41:50;;;;;;;7.55;1.30;;;9.70;99.90;;;;;;5090850;22;20048;-82
2022/04/10 10:44:25;;;;;;;6.20;1.30;;;9.70;99.90;;;;;;5066521;22;1103438;-81
2022/04/10 10:47:03;;;;;;;6.78;1.25;;;9.10;99.90;;;;;;5085334;22;20048;-82
2022/04/10 10:49:30;;;;;;;7.45;1.27;;;9.40;99.90;;;;;;5090221;22;20142;-82
2022/04/10 10:51:57;;;;;;;6.05;1.20;;;9.50;99.90;;;;;;5082131;22;20065;-81
2022/04/10 10:54:34;;;;;;;5.70;1.27;;;9.70;99.90;;;;;;5089581;22;20532;-82
2022/04/10 10:57:23;;;;;;;9.73;1.83;;;10.30;99.90;;;;;;5081428;22;20045;-82
2022/04/10 11:00:15;;;;;;;6.03;1.30;;;10.30;99.90;;;;;;5097656;22;20060;-82
2022/04/10 11:02:53;;;;;;;4.03;1.10;;;10.10;99.90;;;;;;5040414;22;20044;-82
2022/04/10 11:05:46;;;;;;;9.13;1.42;;;10.40;99.90;;;;;;5096799;22;20395;-81
2022/04/10 11:08:17;;;;;;;5.03;1.00;;;10.20;99.90;;;;;;5079791;22;20063;-81
2022/04/10 11:11:03;;;;;;;8.23;1.30;;;11.30;99.90;;;;;;5089268;22;20048;-82
2022/04/10 11:13:42;;;;;;;6.45;1.17;;;10.80;99.90;;;;;;5087375;22;20055;-81
2022/04/10 11:16:13;;;;;;;3.63;1.08;;;11.10;99.90;;;;;;5092070;22;20056;-82
2022/04/10 11:18:48;;;;;;;5.03;1.20;;;11.40;99.90;;;;;;5107061;22;20056;-82
2022/04/10 11:21:17;;;;;;;;;;;11.90;99.90;;;;;;5082497;22;20592;-81
2022/04/10 11:23:50;;;;;;;3.92;1.10;;;11.70;99.90;;;;;;5097558;22;19923;31
2022/04/10 11:26:19;;;;;;;8.73;1.98;;;11.90;99.90;;;;;;5057690;22;20071;-82
2022/04/10 11:29:01;;;;;;;3.53;1.15;;;12.20;99.90;;;;;;5060412;22;20083;-82
2022/04/10 11:31:47;;;;;;;4.80;1.13;;;11.00;99.90;;;;;;5089747;22;20049;-81
2022/04/10 11:34:19;;;;;;;4.90;1.30;;;10.60;99.90;;;;;;5073301;22;20045;-82
2022/04/10 11:36:52;;;;;;;4.45;1.00;;;10.90;99.90;;;;;;5072868;22;20049;-82
2022/04/10 11:39:29;;;;;;;3.10;1.08;;;11.50;99.90;;;;;;5089321;22;20040;-81
2022/04/10 11:42:07;;;;;;;6.63;1.20;;;10.80;99.90;;;;;;5107336;22;20050;-82
2022/04/10 11:44:33;;;;;;;4.53;1.10;;;10.60;99.90;;;;;;5097897;22;20050;-82
2022/04/10 11:47:00;;;;;;;4.50;1.15;;;11.10;99.90;;;;;;5087213;22;20057;-81
2022/04/10 11:49:26;;;;;;;6.18;1.30;;;11.30;99.90;;;;;;5069886;22;20045;-81
2022/04/10 11:51:58;;;;;;;6.45;1.23;;;11.30;99.90;;;;;;5115345;22;20238;-82
2022/04/10 11:54:33;;;;;;;5.47;1.40;;;11.90;99.90;;;;;;5082545;22;20053;-82
2022/04/10 11:57:07;;;;;;;4.20;1.05;;;11.20;99.90;;;;;;5079123;22;20044;-81
2022/04/10 11:59:34;;;;;;;5.40;1.30;;;11.20;99.90;;;;;;5087048;22;20063;-81
2022/04/10 12:02:00;;;;;;;4.95;1.10;;;12.30;99.90;;;;;;5082297;22;20059;-81
2022/04/10 12:04:27;;;;;;;5.18;1.05;;;10.80;99.90;;;;;;5091421;22;20380;-81
2022/04/10 12:07:08;;;;;;;6.28;1.20;;;10.60;99.90;;;;;;5087945;22;20053;-82
2022/04/10 12:09:34;;;;;;;5.75;1.20;;;10.60;99.90;;;;;;5069960;22;20051;-81
2022/04/10 12:11:59;;;;;;;3.15;1.20;;;10.90;99.90;;;;;;5088622;22;20062;-82
2022/04/10 12:14:25;;;;;;;6.30;1.30;;;11.40;99.90;;;;;;5086225;22;20060;-81
2022/04/10 12:16:52;;;;;;;4.53;1.00;;;13.00;99.90;;;;;;5092915;22;20077;-82
2022/04/10 12:19:35;;;;;;;6.93;1.05;;;12.10;99.90;;;;;;5091761;22;20122;-82
2022/04/10 12:22:07;;;;;;;6.88;1.30;;;12.30;99.90;;;;;;5092489;22;20448;-82
2022/04/10 12:24:34;;;;;;;4.18;0.98;;;12.00;99.90;;;;;;5080464;22;20060;-81
2022/04/10 12:27:02;;;;;;;5.53;1.40;;;11.90;99.90;;;;;;5095930;22;20022;-81
2022/04/10 12:29:30;;;;;;;5.82;1.10;;;12.10;99.90;;;;;;5082841;22;20061;-81
2022/04/10 12:31:57;;;;;;;3.22;1.00;;;12.20;99.90;;;;;;5053863;22;20484;-82
2022/04/10 12:34:23;;;;;;;4.95;1.02;;;13.20;99.90;;;;;;5098020;22;20062;-81
2022/04/10 12:36:51;;;;;;;6.35;1.10;;;12.50;99.90;;;;;;5092337;22;20055;-82
2022/04/10 12:39:24;;;;;;;5.82;1.00;;;13.50;99.90;;;;;;5082431;22;20048;-81
2022/04/10 12:42:13;;;;;;;3.08;0.90;;;12.20;99.90;;;;;;5090209;22;20053;-82
2022/04/10 12:44:55;;;;;;;3.13;1.08;;;11.80;99.90;;;;;;5086183;22;20399;-81
2022/04/10 12:47:41;;;;;;;5.93;1.00;;;12.00;99.90;;;;;;5085557;22;20078;-82
2022/04/10 12:50:09;;;;;;;3.67;0.98;;;12.30;99.90;;;;;;5094211;22;20053;-82
2022/04/10 12:52:42;;;;;;;4.15;1.10;;;12.50;99.90;;;;;;5089843;22;20109;-82
2022/04/10 12:55:25;;;;;;;7.50;1.40;;;12.70;99.90;;;;;;5097638;22;20044;-82
2022/04/10 12:58:00;;;;;;;3.97;1.10;;;12.80;99.90;;;;;;5095983;22;20162;-82
2022/04/10 13:00:30;;;;;;;3.45;0.90;;;12.90;99.90;;;;;;5079799;22;20064;-82
2022/04/10 13:02:57;;;;;;;4.15;1.00;;;14.30;99.90;;;;;;5087368;22;20096;-82
2022/04/10 13:05:24;;;;;;;3.72;0.95;;;13.10;99.90;;;;;;5081935;22;20060;-81